Time;durP1;ratioP1;P1;durP2;ratioP2;P2;SDS_P1;SDS_P2;PMS_P1;PMS_P2;Temp;Humidity;BMP_temperature;BMP_pressure;BME280_temperature;BME280_humidity;BME280_pressure;Samples;Min_cycle;Max_cycle;Signal;HPM_P1;HPM_P2
2022/08/05 00:01:34;;;;;;;;;3.00;2.00;;;;;;;;4956611;28;45553;-76
2022/08/05 00:03:59;;;;;;;;;1.00;1.00;;;;;;;;4955326;28;45439;-76
2022/08/05 00:06:24;;;;;;;;;1.33;1.00;;;;;;;;4956497;28;46136;-76
2022/08/05 00:08:49;;;;;;;;;6.33;2.33;;;;;;;;4956086;28;45315;-77
2022/08/05 00:11:15;;;;;;;;;1.00;1.00;;;;;;;;4956671;28;45414;-75
2022/08/05 00:13:41;;;;;;;;;1.67;1.67;;;;;;;;4956551;28;45556;-75
2022/08/05 00:16:08;;;;;;;;;2.00;2.00;;;;;;;;4945058;28;46376;-75
2022/08/05 00:18:33;;;;;;;;;2.67;2.00;;;;;;;;4953954;28;45437;-75
2022/08/05 00:20:58;;;;;;;;;1.00;1.00;;;;;;;;4955826;28;45287;-75
2022/08/05 00:23:23;;;;;;;;;1.67;0.67;;;;;;;;4955770;28;45377;-75
2022/08/05 00:25:49;;;;;;;;;1.00;1.00;;;;;;;;4954989;28;47427;-76
2022/08/05 00:28:14;;;;;;;;;2.00;2.00;;;;;;;;4956154;28;45309;-76
2022/08/05 00:30:40;;;;;;;;;1.00;1.00;;;;;;;;4956179;28;45346;-76
2022/08/05 00:33:05;;;;;;;;;2.00;0.00;;;;;;;;4956131;28;45251;-76
2022/08/05 00:35:30;;;;;;;;;1.00;1.00;;;;;;;;4955436;28;47317;-77
2022/08/05 00:37:55;;;;;;;;;2.67;2.00;;;;;;;;4955707;28;45223;-77
2022/08/05 00:40:22;;;;;;;;;1.00;1.00;;;;;;;;4956159;28;45567;-77
2022/08/05 00:42:47;;;;;;;;;3.00;1.33;;;;;;;;4958624;28;45284;-76
2022/08/05 00:45:12;;;;;;;;;0.67;0.67;;;;;;;;4959514;28;45323;-75
2022/08/05 00:47:37;;;;;;;;;2.00;1.00;;;;;;;;4952742;28;45667;-75
2022/08/05 00:50:03;;;;;;;;;1.00;1.00;;;;;;;;4959681;28;45932;-77
2022/08/05 00:52:28;;;;;;;;;1.00;1.00;;;;;;;;4959052;28;45488;-76
2022/08/05 00:54:53;;;;;;;;;1.67;1.67;;;;;;;;4958958;28;46226;-76
2022/08/05 00:57:18;;;;;;;;;1.67;0.00;;;;;;;;4959047;28;45366;-77
2022/08/05 00:59:44;;;;;;;;;1.00;1.00;;;;;;;;4959263;28;45370;-76
2022/08/05 01:02:09;;;;;;;;;1.00;1.00;;;;;;;;4959146;28;45247;-76
2022/08/05 01:04:34;;;;;;;;;3.33;1.00;;;;;;;;4958621;28;46253;-77
2022/08/05 01:06:59;;;;;;;;;1.00;1.00;;;;;;;;4958779;28;45369;-76
2022/08/05 01:09:24;;;;;;;;;1.00;1.00;;;;;;;;4956942;28;45593;-77
2022/08/05 01:11:51;;;;;;;;;1.00;1.00;;;;;;;;4947860;28;45433;-76
2022/08/05 01:14:19;;;;;;;;;4.00;1.00;;;;;;;;4958563;28;47266;-76
2022/08/05 01:16:50;;;;;;;;;1.00;1.00;;;;;;;;4944580;28;45446;-76
2022/08/05 01:19:21;;;;;;;;;2.00;1.67;;;;;;;;4958537;28;45515;-76
2022/08/05 01:22:12;;;;;;;;;0.33;0.00;;;;;;;;4958835;28;45370;-77
2022/08/05 01:24:51;;;;;;;;;2.00;2.00;;;;;;;;4959291;28;45358;-75
2022/08/05 01:27:35;;;;;;;;;1.67;1.67;;;;;;;;4958676;28;45354;-76
2022/08/05 01:30:02;;;;;;;;;1.67;1.00;;;;;;;;4958905;28;45259;-76
2022/08/05 01:32:30;;;;;;;;;0.67;0.67;;;;;;;;4958598;28;45413;-76
2022/08/05 01:35:07;;;;;;;;;1.67;0.00;;;;;;;;4957953;28;46300;-76
2022/08/05 01:37:41;;;;;;;;;2.67;1.00;;;;;;;;4957894;28;45545;-76
2022/08/05 01:40:08;;;;;;;;;1.67;1.33;;;;;;;;4958658;28;45487;-77
2022/08/05 01:42:35;;;;;;;;;1.67;1.67;;;;;;;;4958450;28;45484;-76
2022/08/05 01:45:00;;;;;;;;;2.00;1.00;;;;;;;;4958198;28;45348;-76
2022/08/05 01:47:27;;;;;;;;;4.00;1.00;;;;;;;;4955383;28;45306;-76
2022/08/05 01:49:53;;;;;;;;;1.33;1.33;;;;;;;;4958302;28;45416;-76
2022/08/05 01:52:20;;;;;;;;;2.33;1.33;;;;;;;;4958367;28;45445;-76
2022/08/05 01:54:47;;;;;;;;;2.00;2.00;;;;;;;;4957231;28;45453;-76
2022/08/05 01:57:13;;;;;;;;;2.00;1.00;;;;;;;;4958282;28;45475;-76
2022/08/05 01:59:39;;;;;;;;;2.00;1.00;;;;;;;;4958186;28;45480;-77
2022/08/05 02:02:05;;;;;;;;;1.67;1.67;;;;;;;;4958140;28;45354;-76
2022/08/05 02:04:32;;;;;;;;;2.67;1.00;;;;;;;;4957727;28;46199;-77
2022/08/05 02:06:57;;;;;;;;;1.00;1.00;;;;;;;;4958290;28;45386;-75
2022/08/05 02:09:23;;;;;;;;;1.67;1.00;;;;;;;;4957960;28;45349;-77
2022/08/05 02:12:04;;;;;;;;;1.67;1.67;;;;;;;;4958497;28;45413;-76
2022/08/05 02:14:32;;;;;;;;;4.00;3.00;;;;;;;;4957739;28;47278;-76
2022/08/05 02:17:01;;;;;;;;;3.00;1.67;;;;;;;;4944013;28;45493;-75
2022/08/05 02:19:27;;;;;;;;;1.33;1.00;;;;;;;;4957542;28;45437;-76
2022/08/05 02:22:00;;;;;;;;;2.00;2.00;;;;;;;;4958118;28;45255;-76
2022/08/05 02:24:31;;;;;;;;;1.67;1.67;;;;;;;;4957954;28;46514;-76
2022/08/05 02:26:58;;;;;;;;;1.33;1.00;;;;;;;;4957390;28;45342;-78
2022/08/05 02:29:24;;;;;;;;;1.33;1.33;;;;;;;;4957908;28;45290;-76
2022/08/05 02:31:52;;;;;;;;;0.00;0.00;;;;;;;;4957035;28;45444;-77
2022/08/05 02:34:18;;;;;;;;;2.00;1.00;;;;;;;;4957555;28;46177;-77
2022/08/05 02:36:49;;;;;;;;;3.00;1.67;;;;;;;;4957749;28;45408;-76
2022/08/05 02:39:16;;;;;;;;;1.00;1.00;;;;;;;;4957524;28;45278;-77
2022/08/05 02:41:41;;;;;;;;;2.00;1.00;;;;;;;;4957743;28;45373;-76
2022/08/05 02:44:07;;;;;;;;;0.33;0.33;;;;;;;;4957221;28;45342;-76
2022/08/05 02:46:37;;;;;;;;;0.67;0.33;;;;;;;;4957397;28;45457;-76
2022/08/05 02:49:05;;;;;;;;;2.00;2.00;;;;;;;;4957153;28;45481;-76
2022/08/05 02:51:31;;;;;;;;;1.67;1.67;;;;;;;;4949016;28;45434;-77
2022/08/05 02:53:56;;;;;;;;;1.00;1.00;;;;;;;;4952133;28;46404;-77
2022/08/05 02:56:22;;;;;;;;;1.00;1.00;;;;;;;;4957301;28;45345;-76
2022/08/05 02:58:48;;;;;;;;;2.33;1.67;;;;;;;;4957459;28;45386;-76
2022/08/05 03:01:16;;;;;;;;;1.00;1.00;;;;;;;;4956926;28;45299;-77
2022/08/05 03:03:41;;;;;;;;;3.67;1.00;;;;;;;;4957164;28;45471;-76
2022/08/05 03:06:08;;;;;;;;;1.00;1.00;;;;;;;;4943198;28;45309;-77
2022/08/05 03:08:34;;;;;;;;;3.33;1.67;;;;;;;;4957401;28;45334;-75
2022/08/05 03:10:59;;;;;;;;;1.00;1.00;;;;;;;;4957231;28;45323;-76
2022/08/05 03:13:25;;;;;;;;;1.33;1.33;;;;;;;;4957000;28;46117;-76
2022/08/05 03:15:50;;;;;;;;;3.00;2.00;;;;;;;;4947939;28;45481;-77
2022/08/05 03:18:15;;;;;;;;;2.00;1.00;;;;;;;;4952267;28;45384;-76
2022/08/05 03:20:40;;;;;;;;;1.67;1.67;;;;;;;;4957321;28;45402;-77
2022/08/05 03:23:07;;;;;;;;;1.00;1.00;;;;;;;;4956917;28;47056;-76
2022/08/05 03:25:33;;;;;;;;;1.00;1.00;;;;;;;;4956833;28;45374;-77
2022/08/05 03:27:58;;;;;;;;;1.67;1.67;;;;;;;;4957045;28;45392;-77
2022/08/05 03:30:25;;;;;;;;;1.00;1.00;;;;;;;;4956831;28;45456;-76
2022/08/05 03:32:51;;;;;;;;;2.33;0.67;;;;;;;;4956787;28;47050;-76
2022/08/05 03:35:16;;;;;;;;;1.33;1.33;;;;;;;;4956574;28;45469;-76
2022/08/05 03:37:41;;;;;;;;;0.67;0.67;;;;;;;;4957150;28;45377;-76
2022/08/05 03:40:08;;;;;;;;;1.67;1.00;;;;;;;;4957046;28;45407;-77
2022/08/05 03:42:34;;;;;;;;;4.00;1.00;;;;;;;;4956710;28;46115;-77
2022/08/05 03:44:59;;;;;;;;;1.00;1.00;;;;;;;;4956468;28;45419;-77
2022/08/05 03:47:25;;;;;;;;;1.00;1.00;;;;;;;;4957000;28;45286;-77
2022/08/05 03:49:50;;;;;;;;;4.00;1.33;;;;;;;;4955797;28;45404;-77
2022/08/05 03:52:18;;;;;;;;;1.00;0.67;;;;;;;;4955711;28;45939;-77
2022/08/05 03:54:53;;;;;;;;;1.00;1.00;;;;;;;;4944433;28;45315;-77
2022/08/05 03:57:23;;;;;;;;;0.33;0.33;;;;;;;;4956679;28;45295;-77
2022/08/05 03:59:52;;;;;;;;;1.67;1.67;;;;;;;;4956309;28;45207;-77
2022/08/05 04:02:19;;;;;;;;;2.00;2.00;;;;;;;;4956179;28;45371;-77
2022/08/05 04:04:44;;;;;;;;;1.00;1.00;;;;;;;;4956298;28;45406;-77
2022/08/05 04:07:10;;;;;;;;;1.00;1.00;;;;;;;;4956745;28;45346;-77
2022/08/05 04:09:35;;;;;;;;;1.33;1.33;;;;;;;;4956471;28;45282;-77
2022/08/05 04:12:00;;;;;;;;;0.33;0.33;;;;;;;;4956159;28;46769;-77
2022/08/05 04:14:26;;;;;;;;;1.33;1.33;;;;;;;;4956094;28;45424;-77
2022/08/05 04:16:52;;;;;;;;;0.33;0.33;;;;;;;;4948689;28;45394;-77
2022/08/05 04:19:17;;;;;;;;;1.00;1.00;;;;;;;;4959768;28;45676;-77
2022/08/05 04:21:42;;;;;;;;;1.00;1.00;;;;;;;;4959375;28;46507;-76
2022/08/05 04:24:08;;;;;;;;;2.00;2.00;;;;;;;;4959464;28;45288;-76
2022/08/05 04:26:33;;;;;;;;;2.33;1.00;;;;;;;;4959790;28;45327;-77
2022/08/05 04:28:58;;;;;;;;;3.67;2.33;;;;;;;;4959312;28;45394;-76
2022/08/05 04:31:24;;;;;;;;;1.67;1.67;;;;;;;;4959478;28;45386;-77
2022/08/05 04:33:49;;;;;;;;;3.33;1.00;;;;;;;;4959226;28;45346;-76
2022/08/05 04:36:14;;;;;;;;;2.33;1.00;;;;;;;;4959481;28;45610;-77
2022/08/05 04:38:41;;;;;;;;;2.00;2.00;;;;;;;;4959433;28;45389;-77
2022/08/05 04:41:06;;;;;;;;;1.25;1.25;;;;;;;;4955019;28;46664;-77
2022/08/05 04:43:31;;;;;;;;;1.67;1.00;;;;;;;;4952522;28;45580;-77
2022/08/05 04:45:57;;;;;;;;;1.67;1.33;;;;;;;;4959586;28;45494;-77
2022/08/05 04:48:22;;;;;;;;;2.00;2.00;;;;;;;;4959422;28;45474;-77
2022/08/05 04:50:48;;;;;;;;;1.33;1.33;;;;;;;;4959240;28;46067;-76
2022/08/05 04:53:14;;;;;;;;;0.00;0.00;;;;;;;;4959440;28;45413;-77
2022/08/05 04:55:40;;;;;;;;;1.00;1.00;;;;;;;;4959190;28;45492;-77
2022/08/05 04:58:06;;;;;;;;;1.67;1.67;;;;;;;;4959028;28;45452;-77
2022/08/05 05:00:31;;;;;;;;;5.00;2.00;;;;;;;;4959146;28;45983;-76
2022/08/05 05:02:57;;;;;;;;;1.33;1.33;;;;;;;;4958699;28;45318;-77
2022/08/05 05:05:22;;;;;;;;;1.33;1.33;;;;;;;;4959248;28;45401;-77
2022/08/05 05:07:47;;;;;;;;;1.00;1.00;;;;;;;;4959004;28;45590;-77
2022/08/05 05:10:12;;;;;;;;;2.00;2.00;;;;;;;;4958813;28;45423;-78
2022/08/05 05:12:37;;;;;;;;;2.00;2.00;;;;;;;;4954856;28;45426;-76
2022/08/05 05:15:03;;;;;;;;;4.00;1.33;;;;;;;;4956381;28;45413;-83
2022/08/05 05:17:35;;;;;;;;;2.00;2.00;;;;;;;;4947998;28;45458;-86
2022/08/05 05:20:00;;;;;;;;;1.00;1.00;;;;;;;;4958930;28;47306;-89
2022/08/05 05:22:25;;;;;;;;;2.67;2.67;;;;;;;;4958598;28;45377;-88
2022/08/05 05:24:50;;;;;;;;;2.00;2.00;;;;;;;;4959638;28;45437;-88
2022/08/05 05:27:16;;;;;;;;;3.00;3.00;;;;;;;;4958639;28;45776;-88
2022/08/05 05:29:41;;;;;;;;;5.00;3.67;;;;;;;;4957969;28;47147;-86
2022/08/05 05:32:06;;;;;;;;;2.00;2.00;;;;;;;;4959022;28;45299;-85
2022/08/05 05:34:32;;;;;;;;;2.00;2.00;;;;;;;;4958974;28;45363;-86
2022/08/05 05:36:57;;;;;;;;;4.00;2.67;;;;;;;;4959157;28;45284;-85
2022/08/05 05:39:22;;;;;;;;;5.00;3.00;;;;;;;;4959102;28;46434;-84
2022/08/05 05:41:47;;;;;;;;;2.33;2.00;;;;;;;;4958539;28;45744;-83
2022/08/05 05:44:12;;;;;;;;;3.00;3.00;;;;;;;;4958797;28;45579;-80
2022/08/05 05:46:38;;;;;;;;;5.00;4.00;;;;;;;;4958792;28;45428;-82
2022/08/05 05:49:03;;;;;;;;;3.00;2.00;;;;;;;;4958305;28;46199;-80
2022/08/05 05:51:28;;;;;;;;;2.00;2.00;;;;;;;;4958861;28;45372;-82
2022/08/05 05:53:54;;;;;;;;;2.67;2.00;;;;;;;;4958461;28;45397;-80
2022/08/05 05:56:19;;;;;;;;;2.00;2.00;;;;;;;;4956948;28;45335;-80
2022/08/05 05:58:46;;;;;;;;;3.00;3.00;;;;;;;;4952375;28;45447;-80
2022/08/05 06:01:12;;;;;;;;;3.00;3.00;;;;;;;;4958162;28;45435;-79
2022/08/05 06:03:37;;;;;;;;;4.33;3.67;;;;;;;;4957779;28;45346;-79
2022/08/05 06:06:05;;;;;;;;;2.33;2.33;;;;;;;;4957690;28;45441;-79
2022/08/05 06:08:30;;;;;;;;;2.67;2.67;;;;;;;;4958166;28;46218;-79
2022/08/05 06:10:55;;;;;;;;;4.00;3.33;;;;;;;;4957703;28;45484;-79
2022/08/05 06:13:20;;;;;;;;;4.00;3.50;;;;;;;;4958110;28;45313;-79
2022/08/05 06:15:46;;;;;;;;;8.00;5.00;;;;;;;;4949793;28;45446;-79
2022/08/05 06:18:11;;;;;;;;;4.67;3.00;;;;;;;;4952473;28;46527;-79
2022/08/05 06:20:36;;;;;;;;;5.00;3.00;;;;;;;;4958188;28;45373;-79
2022/08/05 06:23:01;;;;;;;;;3.00;3.00;;;;;;;;4957797;28;45167;-73
2022/08/05 06:25:26;;;;;;;;;2.00;2.00;;;;;;;;4957173;28;45347;-72
2022/08/05 06:27:52;;;;;;;;;2.33;2.33;;;;;;;;4946201;28;45461;-76
2022/08/05 06:30:17;;;;;;;;;3.00;2.67;;;;;;;;4956599;28;45464;-75
2022/08/05 06:32:42;;;;;;;;;3.00;3.00;;;;;;;;4950220;28;45393;-76
2022/08/05 06:35:08;;;;;;;;;4.67;3.00;;;;;;;;4955324;28;46335;-75
2022/08/05 06:37:33;;;;;;;;;2.00;2.00;;;;;;;;4956124;28;45603;-75
2022/08/05 06:39:58;;;;;;;;;2.00;2.00;;;;;;;;4950713;28;45411;-75
2022/08/05 06:42:23;;;;;;;;;3.00;2.00;;;;;;;;4952180;28;45461;-76
2022/08/05 06:44:49;;;;;;;;;2.00;2.00;;;;;;;;4948738;28;45454;-75
2022/08/05 06:47:14;;;;;;;;;1.33;0.67;;;;;;;;4951569;28;47175;-75
2022/08/05 06:49:39;;;;;;;;;3.67;2.00;;;;;;;;4954214;28;45453;-74
2022/08/05 06:52:04;;;;;;;;;2.33;2.00;;;;;;;;4948303;28;45418;-75
2022/08/05 06:54:29;;;;;;;;;2.00;2.00;;;;;;;;4952986;28;45591;-75
2022/08/05 06:56:55;;;;;;;;;2.00;2.00;;;;;;;;4953254;28;46251;-75
2022/08/05 06:59:20;;;;;;;;;3.00;1.00;;;;;;;;4952619;28;45500;-75
2022/08/05 07:01:45;;;;;;;;;2.00;1.00;;;;;;;;4953674;28;45719;-75
2022/08/05 07:04:10;;;;;;;;;7.33;4.00;;;;;;;;4950956;28;45708;-75
2022/08/05 07:06:36;;;;;;;;;1.00;1.00;;;;;;;;4952702;28;46313;-76
2022/08/05 07:09:01;;;;;;;;;2.00;2.00;;;;;;;;4948012;28;45635;-75
2022/08/05 07:11:29;;;;;;;;;4.00;2.67;;;;;;;;4953317;28;45547;-76
2022/08/05 07:16:48;;;;;;;;;2.00;2.00;;;;;;;;4949345;28;45497;-74
2022/08/05 07:19:13;;;;;;;;;3.00;3.00;;;;;;;;4950388;28;45369;-76
2022/08/05 07:21:38;;;;;;;;;3.00;2.00;;;;;;;;4948690;28;45333;-75
2022/08/05 07:24:03;;;;;;;;;3.00;1.33;;;;;;;;4951232;28;45448;-75
2022/08/05 07:26:29;;;;;;;;;2.00;2.00;;;;;;;;4952550;28;47862;-76
2022/08/05 07:28:54;;;;;;;;;4.00;2.00;;;;;;;;4953827;28;45692;-76
2022/08/05 07:31:19;;;;;;;;;3.33;2.00;;;;;;;;4951755;28;45430;-75
2022/08/05 07:33:44;;;;;;;;;1.00;1.00;;;;;;;;4955726;28;45572;-76
2022/08/05 07:36:09;;;;;;;;;3.33;2.33;;;;;;;;4951650;28;48247;-75
2022/08/05 07:38:36;;;;;;;;;2.00;2.00;;;;;;;;4952068;28;45573;-76
2022/08/05 07:41:05;;;;;;;;;3.67;2.00;;;;;;;;4953502;28;45408;-76
2022/08/05 07:43:30;;;;;;;;;3.00;2.67;;;;;;;;4947459;28;45695;-77
2022/08/05 07:45:55;;;;;;;;;2.00;2.00;;;;;;;;4951792;28;47191;-75
2022/08/05 07:48:20;;;;;;;;;2.00;2.00;;;;;;;;4954244;28;47840;-73
2022/08/05 07:50:45;;;;;;;;;3.33;2.00;;;;;;;;4955979;28;45294;-75
2022/08/05 07:53:11;;;;;;;;;0.67;0.67;;;;;;;;4959864;28;45384;-75
2022/08/05 07:55:36;;;;;;;;;1.67;1.67;;;;;;;;4959672;28;46226;-76
2022/08/05 07:58:01;;;;;;;;;3.00;2.00;;;;;;;;4953991;28;45388;-75
2022/08/05 08:00:26;;;;;;;;;3.67;1.67;;;;;;;;4958936;28;45479;-74
2022/08/05 08:02:51;;;;;;;;;2.00;2.00;;;;;;;;4956218;28;45587;-76
2022/08/05 08:05:17;;;;;;;;;1.00;1.00;;;;;;;;4958052;28;46708;-75
2022/08/05 08:07:42;;;;;;;;;2.33;0.33;;;;;;;;4956195;28;45400;-75
2022/08/05 08:10:07;;;;;;;;;1.33;1.33;;;;;;;;4959335;28;46116;-75
2022/08/05 08:12:32;;;;;;;;;4.33;1.33;;;;;;;;4959605;28;45420;-75
2022/08/05 08:14:58;;;;;;;;;6.00;3.00;;;;;;;;4959455;28;46025;-75
2022/08/05 08:17:23;;;;;;;;;3.67;2.00;;;;;;;;4959382;28;45430;-75
2022/08/05 08:19:49;;;;;;;;;3.00;2.00;;;;;;;;4959247;28;45385;-71
2022/08/05 08:22:14;;;;;;;;;2.00;2.00;;;;;;;;4959200;28;45413;-74
2022/08/05 08:24:39;;;;;;;;;3.33;2.00;;;;;;;;4959327;28;45524;-75
2022/08/05 08:27:04;;;;;;;;;3.33;1.67;;;;;;;;4959339;28;45327;-74
2022/08/05 08:29:30;;;;;;;;;2.33;1.33;;;;;;;;4959746;28;45337;-75
2022/08/05 08:31:55;;;;;;;;;2.33;2.33;;;;;;;;4959137;28;45575;-74
2022/08/05 08:34:22;;;;;;;;;2.00;2.00;;;;;;;;4958719;28;46024;-75
2022/08/05 08:36:47;;;;;;;;;1.33;1.33;;;;;;;;4958750;28;45291;-74
2022/08/05 08:39:12;;;;;;;;;2.00;2.00;;;;;;;;4959160;28;45441;-75
2022/08/05 08:41:39;;;;;;;;;2.00;2.00;;;;;;;;4959306;28;45565;-74
2022/08/05 08:44:09;;;;;;;;;2.33;1.67;;;;;;;;4958971;28;47111;-75
2022/08/05 08:46:34;;;;;;;;;2.00;2.00;;;;;;;;4958779;28;45397;-74
2022/08/05 08:49:01;;;;;;;;;1.67;1.00;;;;;;;;4958440;28;45654;-75
2022/08/05 08:51:30;;;;;;;;;1.00;1.00;;;;;;;;4954742;28;45437;-74
2022/08/05 08:53:55;;;;;;;;;2.67;2.67;;;;;;;;4967914;28;46159;-75
2022/08/05 08:56:22;;;;;;;;;2.67;2.00;;;;;;;;4958873;28;45288;-75
2022/08/05 08:58:47;;;;;;;;;1.00;1.00;;;;;;;;4959054;28;45391;-74
2022/08/05 09:01:13;;;;;;;;;2.00;2.00;;;;;;;;4958973;28;45310;-75
2022/08/05 09:03:40;;;;;;;;;3.00;3.00;;;;;;;;4958199;28;46300;-75
2022/08/05 09:06:05;;;;;;;;;4.00;3.00;;;;;;;;4958477;28;45342;-75
2022/08/05 09:08:30;;;;;;;;;2.00;2.00;;;;;;;;4958421;28;45629;-75
2022/08/05 09:10:56;;;;;;;;;3.00;3.00;;;;;;;;4958988;28;45367;-75
2022/08/05 09:13:21;;;;;;;;;2.67;1.33;;;;;;;;4958822;28;45421;-74
2022/08/05 09:15:46;;;;;;;;;3.67;2.00;;;;;;;;4957289;28;45381;-75
2022/08/05 09:18:12;;;;;;;;;1.33;1.33;;;;;;;;4957767;28;45322;-75
2022/08/05 09:20:37;;;;;;;;;1.00;1.00;;;;;;;;4958875;28;45262;-74
2022/08/05 09:23:02;;;;;;;;;2.33;2.33;;;;;;;;4957778;28;45272;-74
2022/08/05 09:25:28;;;;;;;;;2.67;1.00;;;;;;;;4958555;28;45747;-75
2022/08/05 09:27:53;;;;;;;;;1.33;1.33;;;;;;;;4958884;28;45508;-75
2022/08/05 09:30:19;;;;;;;;;2.00;2.00;;;;;;;;4958387;28;45427;-74
2022/08/05 09:32:44;;;;;;;;;2.00;2.00;;;;;;;;4958079;28;46108;-73
2022/08/05 09:35:13;;;;;;;;;1.33;1.33;;;;;;;;4958013;28;45488;-74
2022/08/05 09:37:48;;;;;;;;;5.67;4.00;;;;;;;;4958410;28;45359;-74
2022/08/05 09:40:30;;;;;;;;;2.33;1.33;;;;;;;;4958158;28;45384;-75
2022/08/05 09:42:55;;;;;;;;;3.00;3.00;;;;;;;;4946581;28;46966;-74
2022/08/05 09:45:32;;;;;;;;;1.50;1.50;;;;;;;;4958498;28;45628;-74
2022/08/05 09:47:58;;;;;;;;;2.33;2.00;;;;;;;;4945980;28;45414;-74
2022/08/05 09:50:33;;;;;;;;;3.00;3.00;;;;;;;;4958020;28;45470;-75
2022/08/05 09:52:58;;;;;;;;;2.00;2.00;;;;;;;;4953926;28;48055;-75
2022/08/05 09:55:23;;;;;;;;;2.00;2.00;;;;;;;;4951093;28;45480;-73
2022/08/05 09:57:48;;;;;;;;;2.33;2.00;;;;;;;;4958107;28;45398;-75
2022/08/05 10:00:18;;;;;;;;;2.67;2.67;;;;;;;;4958145;28;45489;-75
2022/08/05 10:02:44;;;;;;;;;4.50;2.00;;;;;;;;4957093;28;46204;-74
2022/08/05 10:05:12;;;;;;;;;1.67;1.67;;;;;;;;4957861;28;45411;-74
2022/08/05 10:07:45;;;;;;;;;4.00;2.33;;;;;;;;4958001;28;45378;-74
2022/08/05 10:10:10;;;;;;;;;2.00;2.00;;;;;;;;4957769;28;45429;-74
2022/08/05 10:12:39;;;;;;;;;3.67;2.33;;;;;;;;4957725;28;45935;-74
2022/08/05 10:15:15;;;;;;;;;4.00;2.33;;;;;;;;4969252;28;45517;-74
2022/08/05 10:17:41;;;;;;;;;4.00;2.33;;;;;;;;4947490;28;45335;-74
2022/08/05 10:20:06;;;;;;;;;3.00;3.00;;;;;;;;4957410;28;45571;-74
2022/08/05 10:22:32;;;;;;;;;3.67;1.33;;;;;;;;4956998;28;46206;-75
2022/08/05 10:24:57;;;;;;;;;3.00;3.00;;;;;;;;4957021;28;45644;-74
2022/08/05 10:27:23;;;;;;;;;1.67;1.33;;;;;;;;4957971;28;45422;-75
2022/08/05 10:29:48;;;;;;;;;3.00;3.00;;;;;;;;4957750;28;45306;-74
2022/08/05 10:32:14;;;;;;;;;4.00;3.00;;;;;;;;4956671;28;46018;-74
2022/08/05 10:34:39;;;;;;;;;1.67;1.67;;;;;;;;4957058;28;45630;-74
2022/08/05 10:37:04;;;;;;;;;3.00;2.00;;;;;;;;4957029;28;45465;-75
2022/08/05 10:39:32;;;;;;;;;2.33;2.33;;;;;;;;4957453;28;45308;-74
2022/08/05 10:42:00;;;;;;;;;2.67;2.67;;;;;;;;4952606;28;46107;-74
2022/08/05 10:44:26;;;;;;;;;3.00;3.00;;;;;;;;4957370;28;45343;-74
2022/08/05 10:46:53;;;;;;;;;2.67;2.67;;;;;;;;4956002;28;45362;-74
2022/08/05 10:49:19;;;;;;;;;2.00;2.00;;;;;;;;4957009;28;45362;-74
2022/08/05 10:51:45;;;;;;;;;1.67;1.67;;;;;;;;4956924;28;46118;-75
2022/08/05 10:54:10;;;;;;;;;4.00;3.00;;;;;;;;4957070;28;45720;-74
2022/08/05 10:56:43;;;;;;;;;6.00;3.00;;;;;;;;4956549;28;45436;-72
2022/08/05 10:59:10;;;;;;;;;4.67;2.67;;;;;;;;4950075;28;45391;-73
2022/08/05 11:01:43;;;;;;;;;4.00;4.00;;;;;;;;4953996;28;46870;-74
2022/08/05 11:04:08;;;;;;;;;4.00;4.00;;;;;;;;4956358;28;45335;-74
2022/08/05 11:06:34;;;;;;;;;4.33;3.00;;;;;;;;4956647;28;45683;-72
2022/08/05 11:09:09;;;;;;;;;5.33;4.33;;;;;;;;4943552;28;45432;-73
2022/08/05 11:11:35;;;;;;;;;2.67;2.67;;;;;;;;4940659;28;47210;-73
2022/08/05 11:14:01;;;;;;;;;8.67;3.67;;;;;;;;4945580;28;45350;-73
2022/08/05 11:16:27;;;;;;;;;5.67;3.67;;;;;;;;4949501;28;45436;-73
2022/08/05 11:19:11;;;;;;;;;4.00;4.00;;;;;;;;4956017;28;45529;-73
2022/08/05 11:21:37;;;;;;;;;2.00;2.00;;;;;;;;4955696;28;47153;-73
2022/08/05 11:24:08;;;;;;;;;5.33;3.33;;;;;;;;4954948;28;45338;-73
2022/08/05 11:26:34;;;;;;;;;3.00;3.00;;;;;;;;4943827;28;45458;-73
2022/08/05 11:29:00;;;;;;;;;5.67;4.00;;;;;;;;4955683;28;45341;-73
2022/08/05 11:31:28;;;;;;;;;3.00;3.00;;;;;;;;4955158;28;47235;-73
2022/08/05 11:33:56;;;;;;;;;2.67;2.67;;;;;;;;4955139;28;45525;-73
2022/08/05 11:36:30;;;;;;;;;1.67;1.67;;;;;;;;4947164;28;45457;-73
2022/08/05 11:38:56;;;;;;;;;3.00;3.00;;;;;;;;4943782;28;45324;-71
2022/08/05 11:41:21;;;;;;;;;3.00;3.00;;;;;;;;4952920;28;46456;-72
2022/08/05 11:43:54;;;;;;;;;4.33;3.33;;;;;;;;4955327;28;45382;-72
2022/08/05 11:46:31;;;;;;;;;2.00;2.00;;;;;;;;4949782;28;45510;-71
2022/08/05 11:48:57;;;;;;;;;4.00;3.00;;;;;;;;4955960;28;45468;-72
2022/08/05 11:51:23;;;;;;;;;3.00;2.00;;;;;;;;4949741;28;45409;-71
2022/08/05 11:53:49;;;;;;;;;1.00;1.00;;;;;;;;4956104;28;45532;-75
2022/08/05 11:56:14;;;;;;;;;4.00;3.00;;;;;;;;4950648;28;45408;-72
2022/08/05 11:58:40;;;;;;;;;2.00;2.00;;;;;;;;4955119;28;45562;-72
2022/08/05 12:01:07;;;;;;;;;5.33;3.67;;;;;;;;4956060;28;47058;-72
2022/08/05 12:03:46;;;;;;;;;2.67;2.67;;;;;;;;4956086;28;45322;-72
2022/08/05 12:06:12;;;;;;;;;2.33;2.33;;;;;;;;4955935;28;45445;-72
2022/08/05 12:08:40;;;;;;;;;2.67;2.00;;;;;;;;4951584;28;45653;-72
2022/08/05 12:11:06;;;;;;;;;3.33;2.33;;;;;;;;4952469;28;46483;-73
2022/08/05 12:13:32;;;;;;;;;3.00;3.00;;;;;;;;4955803;28;45424;-72
2022/08/05 12:15:57;;;;;;;;;2.00;1.33;;;;;;;;4955809;28;45475;-73
2022/08/05 12:18:27;;;;;;;;;2.33;2.33;;;;;;;;4956081;28;45415;-73
2022/08/05 12:20:53;;;;;;;;;4.00;3.00;;;;;;;;4955759;28;46449;-72
2022/08/05 12:23:18;;;;;;;;;4.00;1.00;;;;;;;;4955535;28;45438;-73
2022/08/05 12:25:50;;;;;;;;;3.00;2.00;;;;;;;;4956144;28;45311;-72
2022/08/05 12:28:28;;;;;;;;;4.00;2.00;;;;;;;;4955527;28;45648;-72
2022/08/05 12:30:55;;;;;;;;;2.00;2.00;;;;;;;;4955543;28;45386;-72
2022/08/05 12:33:20;;;;;;;;;1.67;1.67;;;;;;;;4955624;28;45332;-72
2022/08/05 12:35:45;;;;;;;;;2.67;2.67;;;;;;;;4955883;28;45318;-72
2022/08/05 12:38:11;;;;;;;;;2.33;2.33;;;;;;;;4957150;28;45406;-72
2022/08/05 12:40:36;;;;;;;;;3.67;2.00;;;;;;;;4955595;28;45412;-72
2022/08/05 12:43:01;;;;;;;;;4.00;2.00;;;;;;;;4951922;28;45361;-72
2022/08/05 12:45:26;;;;;;;;;3.67;1.67;;;;;;;;4959148;28;45330;-72
2022/08/05 12:47:52;;;;;;;;;2.33;2.33;;;;;;;;4959283;28;45429;-72
2022/08/05 12:50:17;;;;;;;;;2.67;1.67;;;;;;;;4958591;28;46142;-72
2022/08/05 12:52:53;;;;;;;;;1.67;1.67;;;;;;;;4959098;28;45591;-72
2022/08/05 12:55:20;;;;;;;;;2.00;2.00;;;;;;;;4958502;28;45467;-72
2022/08/05 12:57:45;;;;;;;;;3.00;2.33;;;;;;;;4958937;28;45402;-72
2022/08/05 13:00:20;;;;;;;;;2.33;2.33;;;;;;;;4958226;28;45531;-73
2022/08/05 13:02:45;;;;;;;;;4.00;3.67;;;;;;;;4945416;28;45314;-73
2022/08/05 13:05:10;;;;;;;;;1.67;1.67;;;;;;;;4959124;28;45367;-73
2022/08/05 13:07:38;;;;;;;;;1.33;1.33;;;;;;;;4958598;28;45322;-72
2022/08/05 13:10:08;;;;;;;;;3.00;1.33;;;;;;;;4958243;28;45745;-72
2022/08/05 13:12:38;;;;;;;;;1.33;1.33;;;;;;;;4958712;28;45482;-72
2022/08/05 13:15:04;;;;;;;;;2.00;2.00;;;;;;;;4958941;28;45288;-72
2022/08/05 13:17:30;;;;;;;;;4.00;3.00;;;;;;;;4958499;28;45355;-73
2022/08/05 13:19:59;;;;;;;;;3.67;2.67;;;;;;;;4958375;28;46490;-73
2022/08/05 13:22:24;;;;;;;;;2.67;1.67;;;;;;;;4958367;28;45358;-73
2022/08/05 13:24:50;;;;;;;;;2.00;2.00;;;;;;;;4958241;28;45318;-72
2022/08/05 13:27:48;;;;;;;;;2.00;2.00;;;;;;;;4958189;28;45378;-73
2022/08/05 13:30:14;;;;;;;;;1.33;1.33;;;;;;;;4955126;28;46170;-73
2022/08/05 13:32:40;;;;;;;;;3.00;2.00;;;;;;;;4938783;28;45322;-73
2022/08/05 13:35:06;;;;;;;;;2.00;2.00;;;;;;;;4955436;28;45559;-72
2022/08/05 13:37:31;;;;;;;;;1.00;1.00;;;;;;;;4955753;28;45493;-73
2022/08/05 13:39:57;;;;;;;;;2.00;2.00;;;;;;;;4955293;28;45395;-73
2022/08/05 13:42:22;;;;;;;;;1.33;1.33;;;;;;;;4955099;28;45349;-72
2022/08/05 13:44:54;;;;;;;;;2.33;2.00;;;;;;;;4955970;28;45770;-72
2022/08/05 13:47:20;;;;;;;;;3.67;2.00;;;;;;;;4955840;28;45412;-73
2022/08/05 13:49:45;;;;;;;;;1.33;1.33;;;;;;;;4947031;28;46298;-72
2022/08/05 13:52:13;;;;;;;;;1.00;1.00;;;;;;;;4955705;28;45459;-73
2022/08/05 13:54:39;;;;;;;;;3.00;3.00;;;;;;;;4955537;28;45431;-72
2022/08/05 13:57:04;;;;;;;;;1.67;1.67;;;;;;;;4955375;28;45514;-72
2022/08/05 13:59:29;;;;;;;;;2.33;1.33;;;;;;;;4954720;28;47335;-72
2022/08/05 14:01:56;;;;;;;;;2.00;2.00;;;;;;;;4954519;28;45474;-72
2022/08/05 14:07:05;;;;;;;;;2.33;2.33;;;;;;;;4957606;28;45347;-73
2022/08/05 14:09:30;;;;;;;;;2.00;2.00;;;;;;;;4955817;28;45912;-72
2022/08/05 14:11:55;;;;;;;;;2.00;1.00;;;;;;;;4957681;28;45399;-71
2022/08/05 14:14:20;;;;;;;;;2.00;2.00;;;;;;;;4957317;28;45933;-73
2022/08/05 14:16:46;;;;;;;;;0.00;0.00;;;;;;;;4953402;28;45315;-72
2022/08/05 14:19:11;;;;;;;;;2.33;1.67;;;;;;;;4952813;28;46900;-72
2022/08/05 14:21:36;;;;;;;;;2.00;2.00;;;;;;;;4957191;28;45486;-72
2022/08/05 14:24:01;;;;;;;;;3.33;2.00;;;;;;;;4957272;28;45327;-72
2022/08/05 14:26:26;;;;;;;;;2.33;2.33;;;;;;;;4957325;28;45218;-72
2022/08/05 14:28:51;;;;;;;;;0.33;0.33;;;;;;;;4957141;28;47311;-73
2022/08/05 14:31:17;;;;;;;;;1.00;1.00;;;;;;;;4956809;28;45317;-72
2022/08/05 14:33:42;;;;;;;;;2.33;1.33;;;;;;;;4956827;28;45353;-72
2022/08/05 14:36:07;;;;;;;;;2.00;2.00;;;;;;;;4956946;28;45354;-72
2022/08/05 14:38:32;;;;;;;;;1.00;1.00;;;;;;;;4956813;28;45356;-72
2022/08/05 14:40:58;;;;;;;;;1.00;1.00;;;;;;;;4956588;28;45449;-72
2022/08/05 14:43:23;;;;;;;;;3.33;1.67;;;;;;;;4956480;28;45382;-72
2022/08/05 14:45:48;;;;;;;;;1.00;1.00;;;;;;;;4944502;28;45426;-72